Time;durP1;ratioP1;P1;durP2;ratioP2;P2;SDS_P1;SDS_P2;PMS_P1;PMS_P2;Temp;Humidity;BMP_temperature;BMP_pressure;BME280_temperature;BME280_humidity;BME280_pressure;Samples;Min_cycle;Max_cycle;Signal;HPM_P1;HPM_P2
2024/01/15 00:01:53;;;;;;;7.80;4.15;;;-2.10;99.90;;;;;;4893197;29;20507;-34
2024/01/15 00:04:19;;;;;;;8.65;5.18;;;-2.20;99.90;;;;;;4908622;29;20509;-37
2024/01/15 00:06:44;;;;;;;10.48;4.97;;;-2.20;99.90;;;;;;4909929;29;20410;-34
2024/01/15 00:09:10;;;;;;;7.70;4.10;;;-2.30;99.90;;;;;;4909623;29;20116;-34
2024/01/15 00:11:35;;;;;;;9.60;4.68;;;-2.30;99.90;;;;;;4909598;29;20046;-34
2024/01/15 00:14:01;;;;;;;5.28;4.55;;;-2.30;99.90;;;;;;4911133;29;20032;-34
2024/01/15 00:16:26;;;;;;;6.93;4.13;;;-2.40;99.90;;;;;;4904874;29;20052;-32
2024/01/15 00:18:52;;;;;;;4.72;3.72;;;-2.30;99.90;;;;;;4909161;29;20544;-33
2024/01/15 00:21:18;;;;;;;5.32;4.43;;;-2.40;99.90;;;;;;4912331;29;20032;-33
2024/01/15 00:23:46;;;;;;;5.45;4.63;;;-2.50;99.90;;;;;;4911983;29;20072;-34
2024/01/15 00:26:13;;;;;;;7.65;3.58;;;-2.40;99.90;;;;;;4907021;29;20036;-34
2024/01/15 00:28:38;;;;;;;6.70;4.13;;;-2.40;99.90;;;;;;4911282;29;20032;-34
2024/01/15 00:31:05;;;;;;;7.68;5.32;;;-2.40;99.90;;;;;;4910997;29;20047;-33
2024/01/15 00:33:31;;;;;;;7.38;5.00;;;-2.50;99.90;;;;;;4908892;29;20024;-34
2024/01/15 00:35:56;;;;;;;3.95;3.50;;;-2.50;99.90;;;;;;4904939;29;20683;-33
2024/01/15 00:38:22;;;;;;;11.65;6.38;;;-2.50;99.90;;;;;;4911587;29;20123;-35
2024/01/15 00:40:48;;;;;;;10.43;5.38;;;-2.60;99.90;;;;;;4909945;29;20028;-35
2024/01/15 00:43:14;;;;;;;8.10;5.40;;;-2.60;99.90;;;;;;4903553;29;20384;-35
2024/01/15 00:45:40;;;;;;;8.27;5.18;;;-2.60;99.90;;;;;;4908606;29;20044;-38
2024/01/15 00:48:06;;;;;;;10.43;6.20;;;-2.70;99.90;;;;;;4908627;29;20624;-34
2024/01/15 00:50:32;;;;;;;11.68;5.78;;;-2.70;99.90;;;;;;4906188;29;20482;-39
2024/01/15 00:52:57;;;;;;;4.38;3.97;;;-2.70;99.90;;;;;;4904897;29;20482;-41
2024/01/15 00:55:23;;;;;;;13.43;6.68;;;-2.60;99.90;;;;;;4909847;29;20067;-40
2024/01/15 00:57:48;;;;;;;9.43;6.55;;;-2.60;99.90;;;;;;4904780;29;20036;-40
2024/01/15 01:00:14;;;;;;;8.48;4.72;;;-2.70;99.90;;;;;;4914815;29;20031;-41
2024/01/15 01:02:40;;;;;;;14.30;8.35;;;-2.70;99.90;;;;;;4910109;29;20501;-39
2024/01/15 01:05:06;;;;;;;6.93;4.78;;;-2.70;99.90;;;;;;4905497;29;20561;-41
2024/01/15 01:07:31;;;;;;;6.82;5.30;;;-2.80;99.90;;;;;;4907424;29;20494;-41
2024/01/15 01:09:57;;;;;;;7.90;6.18;;;-2.80;99.90;;;;;;4907467;29;20458;-42
2024/01/15 01:12:22;;;;;;;6.07;3.53;;;-2.70;99.90;;;;;;4904492;29;20029;-41
2024/01/15 01:14:48;;;;;;;3.35;3.05;;;-2.80;99.90;;;;;;4904799;29;20029;-39
2024/01/15 01:17:13;;;;;;;11.90;5.65;;;-2.80;99.90;;;;;;4893649;29;20035;-40
2024/01/15 01:19:39;;;;;;;7.10;3.50;;;-2.80;99.90;;;;;;4907883;29;20490;-38
2024/01/15 01:22:05;;;;;;;8.07;5.05;;;-2.70;99.90;;;;;;4899172;29;20039;-41
2024/01/15 01:24:30;;;;;;;2.40;1.85;;;-2.70;99.90;;;;;;4909417;29;20059;-41
2024/01/15 01:26:56;;;;;;;5.90;2.58;;;-2.70;99.90;;;;;;4902655;29;20056;-41
2024/01/15 01:29:22;;;;;;;3.33;2.72;;;-2.70;99.90;;;;;;4904054;29;20028;-39
2024/01/15 01:31:48;;;;;;;3.95;3.42;;;-2.60;99.90;;;;;;4906161;29;20029;-38
2024/01/15 01:34:15;;;;;;;8.73;5.55;;;-2.60;99.90;;;;;;4904732;29;20160;-40
2024/01/15 01:36:41;;;;;;;5.05;3.85;;;-2.50;99.90;;;;;;4910659;29;20398;-38
2024/01/15 01:39:07;;;;;;;8.05;4.78;;;-2.40;99.90;;;;;;4907971;29;20028;-41
2024/01/15 01:41:32;;;;;;;3.28;2.72;;;-2.40;99.90;;;;;;4905364;29;20028;-38
2024/01/15 01:43:58;;;;;;;8.07;4.47;;;-2.40;99.90;;;;;;4907738;29;20036;-39
2024/01/15 01:46:25;;;;;;;4.63;3.85;;;-2.40;99.90;;;;;;4912008;29;20040;-40
2024/01/15 01:48:52;;;;;;;4.38;3.97;;;-2.30;99.90;;;;;;4908184;29;20482;-41
2024/01/15 01:51:18;;;;;;;9.38;4.90;;;-2.30;99.90;;;;;;4905906;29;20028;-40
2024/01/15 01:53:45;;;;;;;5.82;4.13;;;-2.20;99.90;;;;;;4907051;29;20024;-38
2024/01/15 01:56:12;;;;;;;7.60;4.25;;;-2.10;99.90;;;;;;4903454;29;20672;-41
2024/01/15 01:58:38;;;;;;;6.05;3.95;;;-2.10;99.90;;;;;;4904677;29;20545;-40
2024/01/15 02:01:03;;;;;;;6.25;3.95;;;-2.10;99.90;;;;;;4900705;29;20036;-41
2024/01/15 02:03:31;;;;;;;6.95;4.55;;;-2.10;99.90;;;;;;4901489;29;20180;-40
2024/01/15 02:05:57;;;;;;;7.80;4.90;;;-2.00;99.90;;;;;;4904877;29;20029;-40
2024/01/15 02:08:22;;;;;;;2.75;2.55;;;-1.90;99.90;;;;;;4912869;29;20066;-41
2024/01/15 02:10:48;;;;;;;9.00;4.28;;;-2.00;99.90;;;;;;4903615;29;20463;-39
2024/01/15 02:13:14;;;;;;;6.35;4.65;;;-2.00;99.90;;;;;;4912591;29;20028;-41
2024/01/15 02:15:40;;;;;;;11.32;5.35;;;-2.10;99.90;;;;;;4911069;29;20020;-37
2024/01/15 02:18:09;;;;;;;3.10;2.92;;;-2.00;99.90;;;;;;4906549;29;20040;-40
2024/01/15 02:20:35;;;;;;;12.77;7.22;;;-2.00;99.90;;;;;;4906601;29;20058;-40
2024/01/15 02:23:12;;;;;;;7.22;3.40;;;-2.10;99.90;;;;;;4912516;29;20032;-38
2024/01/15 02:25:40;;;;;;;9.27;4.43;;;-2.10;99.90;;;;;;4906324;29;20123;-40
2024/01/15 02:28:09;;;;;;;4.28;3.20;;;-2.10;99.90;;;;;;4903726;29;20394;-38
2024/01/15 02:30:40;;;;;;;2.40;2.33;;;-2.20;99.90;;;;;;4905081;29;20040;-33
2024/01/15 02:33:07;;;;;;;2.47;2.38;;;-2.30;99.90;;;;;;4909045;29;20143;-33
2024/01/15 02:35:33;;;;;;;11.35;5.55;;;-2.30;99.90;;;;;;4907406;29;20466;-37
2024/01/15 02:37:59;;;;;;;5.18;3.92;;;-2.30;99.90;;;;;;4904006;29;20130;-33
2024/01/15 02:40:24;;;;;;;6.68;4.38;;;-2.20;99.90;;;;;;4902691;29;20060;-32
2024/01/15 02:42:50;;;;;;;7.10;4.65;;;-2.20;99.90;;;;;;4914413;29;20035;-37
2024/01/15 02:45:16;;;;;;;5.43;3.25;;;-2.20;99.90;;;;;;4904363;29;20057;-33
2024/01/15 02:47:42;;;;;;;6.05;3.78;;;-2.20;99.90;;;;;;4903179;29;20038;-35
2024/01/15 02:50:07;;;;;;;5.10;3.25;;;-2.20;99.90;;;;;;4907988;29;20375;-34
2024/01/15 02:52:33;;;;;;;3.60;3.22;;;-2.20;99.90;;;;;;4907885;29;20102;-33
2024/01/15 02:54:59;;;;;;;6.80;2.65;;;-2.20;99.90;;;;;;4906631;29;20395;-36
2024/01/15 02:57:24;;;;;;;4.63;2.75;;;-2.20;99.90;;;;;;4908148;29;20099;-33
2024/01/15 02:59:50;;;;;;;2.65;2.50;;;-2.20;99.90;;;;;;4908237;29;20028;-34
2024/01/15 03:02:15;;;;;;;4.22;3.60;;;-2.30;99.90;;;;;;4903359;29;20594;-36
2024/01/15 03:04:44;;;;;;;5.28;3.42;;;-2.30;99.90;;;;;;4910030;29;20028;-34
2024/01/15 03:07:10;;;;;;;;;;;-2.30;99.90;;;;;;4906299;29;20040;-36
2024/01/15 03:09:35;;;;;;;2.38;2.28;;;-2.30;99.90;;;;;;4908067;29;19941;-41
2024/01/15 03:12:01;;;;;;;5.32;4.10;;;-2.30;99.90;;;;;;4903179;29;20024;-40
2024/01/15 03:14:26;;;;;;;5.57;3.97;;;-2.20;99.90;;;;;;4907346;29;20056;-41
2024/01/15 03:16:53;;;;;;;3.03;2.55;;;-2.30;99.90;;;;;;4898583;29;20039;-41
2024/01/15 03:19:18;;;;;;;4.30;2.67;;;-2.30;99.90;;;;;;4902494;29;20028;-39
2024/01/15 03:21:44;;;;;;;2.80;2.47;;;-2.30;99.90;;;;;;4906547;29;20030;-35
2024/01/15 03:24:09;;;;;;;4.00;3.63;;;-2.30;99.90;;;;;;4907894;29;20363;-40
2024/01/15 03:26:35;;;;;;;2.88;2.65;;;-2.30;99.90;;;;;;4904235;29;20032;-41
2024/01/15 03:29:00;;;;;;;6.88;2.72;;;-2.20;99.90;;;;;;4904976;29;20509;-40
2024/01/15 03:31:26;;;;;;;4.68;2.75;;;-2.30;99.90;;;;;;4907159;29;20083;-41
2024/01/15 03:33:51;;;;;;;3.72;3.15;;;-2.30;99.90;;;;;;4900456;29;20626;-41
2024/01/15 03:36:17;;;;;;;5.80;3.67;;;-2.30;99.90;;;;;;4909090;29;20037;-41
2024/01/15 03:38:43;;;;;;;4.38;2.85;;;-2.30;99.90;;;;;;4911200;29;20029;-39
2024/01/15 03:41:08;;;;;;;7.97;4.03;;;-2.30;99.90;;;;;;4911287;29;20043;-41
2024/01/15 03:43:34;;;;;;;6.28;4.90;;;-2.30;99.90;;;;;;4911466;29;20028;-41
2024/01/15 03:45:59;;;;;;;5.35;3.33;;;-2.30;99.90;;;;;;4909995;29;20036;-42
2024/01/15 03:48:25;;;;;;;4.32;3.72;;;-2.40;99.90;;;;;;4915342;29;20031;-43
2024/01/15 03:50:50;;;;;;;9.00;3.92;;;-2.30;99.90;;;;;;4914041;29;20496;-41
2024/01/15 03:53:16;;;;;;;13.35;5.40;;;-2.30;99.90;;;;;;4915370;29;20472;-43
2024/01/15 03:55:42;;;;;;;3.97;2.95;;;-2.20;99.90;;;;;;4915743;29;20028;-42
2024/01/15 03:58:08;;;;;;;6.38;4.32;;;-2.20;99.90;;;;;;4913430;29;20382;-41
2024/01/15 04:00:34;;;;;;;3.97;3.58;;;-2.20;99.90;;;;;;4909705;29;20512;-41
2024/01/15 04:03:00;;;;;;;5.25;3.95;;;-2.30;99.90;;;;;;4908251;29;20032;-42
2024/01/15 04:05:26;;;;;;;3.30;3.08;;;-2.20;99.90;;;;;;4910488;29;20033;-40
2024/01/15 04:07:52;;;;;;;4.65;3.08;;;-2.30;99.90;;;;;;4905278;29;20693;-41
2024/01/15 04:10:17;;;;;;;8.38;4.57;;;-2.30;99.90;;;;;;4913501;29;20036;-41
2024/01/15 04:12:43;;;;;;;4.90;3.53;;;-2.30;99.90;;;;;;4908937;29;20416;-42
2024/01/15 04:15:08;;;;;;;4.65;3.38;;;-2.40;99.90;;;;;;4905300;29;20036;-43
2024/01/15 04:17:34;;;;;;;2.58;2.42;;;-2.40;99.90;;;;;;4915265;29;20040;-43
2024/01/15 04:20:00;;;;;;;3.28;3.08;;;-2.30;99.90;;;;;;4902534;29;20036;-32
2024/01/15 04:22:26;;;;;;;8.40;3.70;;;-2.30;99.90;;;;;;4909339;29;20084;-33
2024/01/15 04:24:52;;;;;;;5.10;3.28;;;-2.30;99.90;;;;;;4909353;29;20044;-33
2024/01/15 04:27:17;;;;;;;4.85;2.65;;;-2.20;99.90;;;;;;4904584;29;20123;-34
2024/01/15 04:29:44;;;;;;;2.85;2.55;;;-2.20;99.90;;;;;;4912665;29;20044;-40
2024/01/15 04:32:10;;;;;;;5.82;3.90;;;-2.10;99.90;;;;;;4913733;29;20526;-40
2024/01/15 04:34:35;;;;;;;5.50;4.07;;;-2.10;99.90;;;;;;4886479;29;20116;-41
2024/01/15 04:37:01;;;;;;;5.47;3.40;;;-2.10;99.90;;;;;;4907102;29;20106;-39
2024/01/15 04:39:27;;;;;;;7.25;4.07;;;-2.00;99.90;;;;;;4910741;29;20032;-40
2024/01/15 04:41:52;;;;;;;5.45;4.80;;;-2.00;99.90;;;;;;4907317;29;20024;-42
2024/01/15 04:44:18;;;;;;;3.53;3.13;;;-2.00;99.90;;;;;;4905086;29;20024;-39
2024/01/15 04:46:44;;;;;;;3.50;2.97;;;-2.00;99.90;;;;;;4900437;29;20490;-38
2024/01/15 04:49:10;;;;;;;4.00;2.65;;;-2.00;99.90;;;;;;4902205;29;20025;-37
2024/01/15 04:51:36;;;;;;;4.22;3.85;;;-2.00;99.90;;;;;;4907700;29;20397;-32
2024/01/15 04:54:01;;;;;;;3.92;3.08;;;-2.00;99.90;;;;;;4902964;29;20172;-34
2024/01/15 04:56:27;;;;;;;4.82;1.70;;;-2.00;99.90;;;;;;4914477;29;20028;-32
2024/01/15 04:58:52;;;;;;;5.38;3.40;;;-2.00;99.90;;;;;;4912492;29;20037;-34
2024/01/15 05:01:18;;;;;;;5.05;2.80;;;-2.00;99.90;;;;;;4901010;29;20040;-32
2024/01/15 05:03:43;;;;;;;4.68;2.90;;;-2.00;99.90;;;;;;4920859;29;20024;-40
2024/01/15 05:06:09;;;;;;;6.70;4.13;;;-2.00;99.90;;;;;;4910253;29;20127;-32
2024/01/15 05:08:35;;;;;;;6.35;3.20;;;-2.00;99.90;;;;;;4903402;29;20103;-32
2024/01/15 05:11:00;;;;;;;3.80;3.33;;;-1.90;99.90;;;;;;4911391;29;20087;-34
2024/01/15 05:13:26;;;;;;;2.28;2.08;;;-1.90;99.90;;;;;;4909134;29;20025;-32
2024/01/15 05:15:52;;;;;;;5.07;2.10;;;-1.90;99.90;;;;;;4896365;29;20029;-33
2024/01/15 05:18:18;;;;;;;2.40;2.30;;;-1.90;99.90;;;;;;4905023;29;20519;-32
2024/01/15 05:20:44;;;;;;;5.97;3.00;;;-1.90;99.90;;;;;;4907240;29;20083;-35
2024/01/15 05:23:09;;;;;;;1.60;1.52;;;-1.90;99.90;;;;;;4909646;29;20040;-37
2024/01/15 05:25:35;;;;;;;2.22;2.05;;;-1.90;99.90;;;;;;4908145;29;20028;-34
2024/01/15 05:28:01;;;;;;;3.90;2.20;;;-2.00;99.90;;;;;;4905425;29;20032;-32
2024/01/15 05:30:26;;;;;;;4.45;3.50;;;-1.90;99.90;;;;;;4911823;29;20119;-32
2024/01/15 05:32:52;;;;;;;1.85;1.73;;;-1.90;99.90;;;;;;4911800;29;20514;-35
2024/01/15 05:35:17;;;;;;;3.05;2.75;;;-2.00;99.90;;;;;;4904158;29;20461;-33
2024/01/15 05:37:48;;;;;;;5.10;2.88;;;-2.00;99.90;;;;;;4910109;29;20594;-32
2024/01/15 05:40:14;;;;;;;2.70;2.35;;;-2.00;99.90;;;;;;4909641;29;20573;-41
2024/01/15 05:42:40;;;;;;;2.53;2.22;;;-2.00;99.90;;;;;;4900533;29;20032;-38
2024/01/15 05:45:06;;;;;;;2.97;2.67;;;-2.10;99.90;;;;;;4905059;29;20036;-40
2024/01/15 05:47:31;;;;;;;4.07;3.05;;;-2.10;99.90;;;;;;4906136;29;20055;-39
2024/01/15 05:49:58;;;;;;;6.43;2.95;;;-2.20;99.90;;;;;;4907570;29;20586;-38
2024/01/15 05:52:23;;;;;;;4.53;3.45;;;-2.10;99.90;;;;;;4906608;29;20482;-41
2024/01/15 05:54:50;;;;;;;4.82;2.67;;;-2.10;99.90;;;;;;4912479;29;20044;-38
2024/01/15 05:57:15;;;;;;;4.57;2.65;;;-2.10;99.90;;;;;;4908477;29;20768;-41
2024/01/15 05:59:42;;;;;;;5.68;3.38;;;-2.10;99.90;;;;;;4914455;29;20040;-37
2024/01/15 06:02:08;;;;;;;4.43;3.38;;;-2.10;99.90;;;;;;4910956;29;20048;-34
2024/01/15 06:04:34;;;;;;;5.07;3.00;;;-2.10;99.90;;;;;;4908677;29;20040;-35
2024/01/15 06:06:59;;;;;;;6.65;3.42;;;-2.10;99.90;;;;;;4910185;29;20682;-33
2024/01/15 06:09:25;;;;;;;16.55;8.57;;;-2.10;99.90;;;;;;4910103;29;20035;-33
2024/01/15 06:11:50;;;;;;;35.22;16.42;;;-2.20;99.90;;;;;;4914544;29;20039;-35
2024/01/15 06:14:16;;;;;;;11.57;6.72;;;-2.20;99.90;;;;;;4913619;29;20115;-33
2024/01/15 06:16:42;;;;;;;18.00;9.50;;;-2.10;99.90;;;;;;4911518;29;20039;-36
2024/01/15 06:19:07;;;;;;;31.05;14.93;;;-2.10;99.90;;;;;;4910971;29;20513;-34
2024/01/15 06:21:33;;;;;;;58.47;29.58;;;-2.10;99.90;;;;;;4908668;29;20493;-39
2024/01/15 06:23:59;;;;;;;22.20;10.27;;;-2.10;99.90;;;;;;4910772;29;20039;-36
2024/01/15 06:26:24;;;;;;;6.28;4.13;;;-2.00;99.90;;;;;;4913158;29;20122;-33
2024/01/15 06:28:50;;;;;;;4.00;3.58;;;-1.90;99.90;;;;;;4910414;29;20036;-35
2024/01/15 06:31:16;;;;;;;6.95;4.60;;;-1.80;99.90;;;;;;4915940;29;20271;-36
2024/01/15 06:33:41;;;;;;;7.63;3.85;;;-1.70;99.90;;;;;;4911082;29;20860;-36
2024/01/15 06:36:07;;;;;;;5.60;3.47;;;-1.50;99.90;;;;;;4915089;29;20035;-36
2024/01/15 06:38:33;;;;;;;3.00;2.70;;;-1.40;99.90;;;;;;4913269;29;20080;-34
2024/01/15 06:40:59;;;;;;;2.55;2.33;;;-1.30;99.90;;;;;;4901913;29;20109;-36
2024/01/15 06:43:24;;;;;;;2.20;2.00;;;-1.30;99.90;;;;;;4904011;29;20470;-33
2024/01/15 06:45:50;;;;;;;2.88;2.67;;;-1.30;99.90;;;;;;4908891;29;20062;-35
2024/01/15 06:48:16;;;;;;;6.47;2.85;;;-1.30;99.90;;;;;;4904245;29;20028;-33
2024/01/15 06:50:42;;;;;;;2.67;2.50;;;-1.30;99.90;;;;;;4900360;29;20039;-38
2024/01/15 06:53:08;;;;;;;4.93;3.40;;;-1.10;99.90;;;;;;4907260;29;20030;-39
2024/01/15 06:55:34;;;;;;;3.88;2.38;;;-1.00;99.90;;;;;;4898081;29;20036;-41
2024/01/15 06:57:59;;;;;;;2.78;1.95;;;-0.90;99.90;;;;;;4907175;29;20505;-40
2024/01/15 07:00:25;;;;;;;3.78;2.58;;;-0.90;99.90;;;;;;4906561;29;20044;-42
2024/01/15 07:02:51;;;;;;;2.33;2.13;;;-0.90;99.90;;;;;;4906119;29;20549;-42
2024/01/15 07:05:17;;;;;;;4.65;3.40;;;-0.90;99.90;;;;;;4905048;29;20028;-42
2024/01/15 07:07:43;;;;;;;6.65;3.55;;;-0.80;99.90;;;;;;4897800;29;20044;-36
2024/01/15 07:10:09;;;;;;;3.65;3.30;;;-0.80;99.90;;;;;;4903086;29;20028;-33
2024/01/15 07:12:34;;;;;;;2.28;2.15;;;-0.70;99.90;;;;;;4905303;29;20565;-35
2024/01/15 07:15:01;;;;;;;3.03;1.75;;;-0.70;99.90;;;;;;4903569;29;20080;-33
2024/01/15 07:17:28;;;;;;;3.97;3.42;;;-0.70;99.90;;;;;;4907286;29;20039;-37
2024/01/15 07:19:53;;;;;;;2.85;2.30;;;-0.70;99.90;;;;;;4902569;29;20028;-33
2024/01/15 07:22:19;;;;;;;3.53;2.45;;;-0.70;99.90;;;;;;4902287;29;20715;-35
2024/01/15 07:24:45;;;;;;;3.80;3.35;;;-0.70;99.90;;;;;;4901487;29;20024;-37
2024/01/15 07:27:11;;;;;;;5.65;4.03;;;-0.60;99.90;;;;;;4906275;29;20371;-34
2024/01/15 07:29:37;;;;;;;4.75;3.10;;;-0.60;99.90;;;;;;4903604;29;20028;-35
2024/01/15 07:32:03;;;;;;;8.18;2.53;;;-0.60;99.90;;;;;;4911120;29;20041;-35
2024/01/15 07:34:32;;;;;;;6.95;3.00;;;-0.50;99.90;;;;;;4910911;29;20066;-38
2024/01/15 07:36:58;;;;;;;3.33;2.90;;;-0.50;99.90;;;;;;4896719;29;20120;-39
2024/01/15 07:39:24;;;;;;;1.60;1.60;;;-0.50;99.90;;;;;;4899700;29;20108;-33
2024/01/15 07:41:53;;;;;;;3.90;2.63;;;-0.50;99.90;;;;;;4902165;29;20092;-35
2024/01/15 07:44:19;;;;;;;1.85;1.58;;;-0.50;99.90;;;;;;4899521;29;20089;-37
2024/01/15 07:46:45;;;;;;;3.42;1.58;;;-0.50;99.90;;;;;;4895568;29;20017;-36
2024/01/15 07:49:11;;;;;;;3.35;2.15;;;-0.50;99.90;;;;;;4898842;29;20047;-35
2024/01/15 07:51:37;;;;;;;1.70;1.60;;;-0.40;99.90;;;;;;4899945;29;20093;-35
2024/01/15 07:54:03;;;;;;;1.60;1.55;;;-0.30;99.90;;;;;;4900216;29;20032;-36
2024/01/15 07:56:29;;;;;;;2.53;1.50;;;-0.30;99.90;;;;;;4896110;29;20024;-34
2024/01/15 07:58:54;;;;;;;1.77;1.67;;;-0.30;99.90;;;;;;4896352;29;20032;-34
2024/01/15 08:01:20;;;;;;;1.95;1.85;;;-0.30;99.90;;;;;;4895924;29;20032;-36
2024/01/15 08:03:45;;;;;;;2.13;1.90;;;-0.30;99.90;;;;;;4901842;29;20498;-36
2024/01/15 08:06:11;;;;;;;2.13;2.00;;;-0.20;99.90;;;;;;4894701;29;20036;-34
2024/01/15 08:08:37;;;;;;;2.05;1.95;;;-0.20;99.90;;;;;;4894152;29;20521;-34
2024/01/15 08:11:03;;;;;;;2.70;2.13;;;-0.10;99.90;;;;;;4901062;29;20021;-37
2024/01/15 08:13:28;;;;;;;1.60;1.50;;;-0.10;99.90;;;;;;4897032;29;20039;-36
2024/01/15 08:15:54;;;;;;;3.47;3.08;;;-0.10;99.90;;;;;;4901295;29;20147;-33
2024/01/15 08:18:21;;;;;;;3.10;2.80;;;-0.20;99.90;;;;;;4896039;29;20546;-36
2024/01/15 08:20:47;;;;;;;2.70;2.50;;;-0.20;99.90;;;;;;4902276;29;20024;-34
2024/01/15 08:23:13;;;;;;;4.60;2.95;;;-0.30;99.90;;;;;;4894257;29;20395;-34
2024/01/15 08:25:39;;;;;;;6.20;3.50;;;-0.20;99.90;;;;;;4897962;29;20268;-38
2024/01/15 08:28:05;;;;;;;4.38;3.53;;;-0.20;99.90;;;;;;4902980;29;20047;-36
2024/01/15 08:30:30;;;;;;;3.35;2.70;;;-0.20;99.90;;;;;;4908565;29;20154;-36
2024/01/15 08:32:57;;;;;;;4.93;3.28;;;-0.10;99.90;;;;;;4910734;29;20342;-33
2024/01/15 08:35:22;;;;;;;3.10;2.17;;;-0.10;99.90;;;;;;4902391;29;20032;-39
2024/01/15 08:37:52;;;;;;;3.92;2.97;;;-0.10;99.90;;;;;;4899793;29;20446;-34
2024/01/15 08:40:18;;;;;;;3.78;3.40;;;0.00;99.90;;;;;;4897532;29;20032;-35
2024/01/15 08:42:45;;;;;;;3.60;2.88;;;0.00;99.90;;;;;;4905794;29;20028;-38
2024/01/15 08:45:11;;;;;;;4.53;2.70;;;0.10;99.90;;;;;;4900979;29;20100;-35
2024/01/15 08:47:37;;;;;;;4.57;2.92;;;0.10;99.90;;;;;;4901086;29;20032;-32
2024/01/15 08:50:03;;;;;;;5.20;3.58;;;0.10;99.90;;;;;;4899756;29;20055;-34
2024/01/15 08:52:29;;;;;;;2.95;2.65;;;0.10;99.90;;;;;;4905891;29;20039;-33
2024/01/15 08:54:58;;;;;;;2.30;2.10;;;0.20;99.90;;;;;;4900141;29;20495;-33
2024/01/15 08:57:24;;;;;;;3.13;2.75;;;0.20;99.90;;;;;;4906188;29;20465;-34
2024/01/15 08:59:51;;;;;;;2.92;2.72;;;0.20;99.90;;;;;;4898165;29;20131;-33
2024/01/15 09:02:16;;;;;;;4.10;1.98;;;0.30;99.90;;;;;;4903676;29;20037;-34
2024/01/15 09:04:42;;;;;;;2.33;2.20;;;0.30;99.90;;;;;;4906228;29;20047;-36
2024/01/15 09:07:08;;;;;;;4.00;2.33;;;0.40;99.50;;;;;;4910539;29;20443;-33
2024/01/15 09:09:34;;;;;;;3.03;2.30;;;0.40;99.90;;;;;;4906813;29;20028;-34
2024/01/15 09:12:00;;;;;;;6.35;2.08;;;0.40;97.60;;;;;;4904244;29;20051;-36
2024/01/15 09:14:26;;;;;;;2.10;2.00;;;0.40;99.60;;;;;;4908855;29;20024;-35
2024/01/15 09:16:53;;;;;;;3.13;2.22;;;0.40;99.40;;;;;;4906650;29;20035;-36
2024/01/15 09:19:19;;;;;;;2.28;1.80;;;0.40;97.80;;;;;;4905512;29;20028;-34
2024/01/15 09:21:44;;;;;;;2.42;2.22;;;0.40;97.70;;;;;;4905531;29;20088;-38
2024/01/15 09:24:10;;;;;;;4.38;2.88;;;0.40;97.00;;;;;;4907071;29;20402;-43
2024/01/15 09:26:35;;;;;;;2.15;2.00;;;0.40;95.20;;;;;;4905890;29;20035;-41
2024/01/15 09:29:02;;;;;;;2.15;2.05;;;0.40;97.10;;;;;;4907839;29;20661;-38
2024/01/15 09:31:29;;;;;;;2.10;1.90;;;0.50;96.60;;;;;;4909595;29;20425;-34
2024/01/15 09:33:56;;;;;;;2.60;2.10;;;0.50;96.70;;;;;;4887913;29;20068;-34
2024/01/15 09:36:22;;;;;;;4.20;2.28;;;0.50;96.30;;;;;;4902293;29;20061;-34
2024/01/15 09:38:48;;;;;;;2.10;1.10;;;0.50;94.90;;;;;;4904393;29;20028;-38
2024/01/15 09:41:14;;;;;;;2.60;1.52;;;0.50;95.80;;;;;;4906629;29;20028;-33
2024/01/15 09:43:40;;;;;;;1.85;1.73;;;0.50;95.00;;;;;;4907891;29;20032;-39
2024/01/15 09:46:06;;;;;;;1.33;1.23;;;0.60;92.80;;;;;;4903874;29;20047;-36
2024/01/15 09:48:34;;;;;;;1.75;1.65;;;0.60;95.10;;;;;;4905218;29;20024;-34
2024/01/15 09:51:01;;;;;;;1.05;0.98;;;0.60;95.70;;;;;;4913032;29;20039;-37
2024/01/15 09:53:27;;;;;;;4.07;1.50;;;0.60;96.50;;;;;;4913628;29;20093;-35
2024/01/15 09:55:53;;;;;;;3.05;1.85;;;0.60;95.80;;;;;;4907935;29;20060;-34
2024/01/15 09:58:18;;;;;;;5.28;1.70;;;0.60;96.20;;;;;;4909832;29;20040;-35
2024/01/15 10:00:47;;;;;;;0.93;0.93;;;0.60;95.30;;;;;;4904158;29;20040;-37
2024/01/15 10:03:13;;;;;;;1.40;1.30;;;0.60;95.80;;;;;;4911825;29;20611;-35
2024/01/15 10:05:39;;;;;;;1.40;1.40;;;0.70;95.80;;;;;;4908899;29;20026;-41
2024/01/15 10:08:05;;;;;;;1.48;1.38;;;0.80;94.90;;;;;;4903557;29;20044;-39
2024/01/15 10:10:31;;;;;;;1.17;1.17;;;1.00;94.00;;;;;;4906704;29;20028;-34
2024/01/15 10:13:01;;;;;;;1.52;1.25;;;1.00;94.30;;;;;;4909443;29;20047;-34
2024/01/15 10:15:26;;;;;;;1.15;1.08;;;1.10;94.40;;;;;;4906977;29;20427;-35
2024/01/15 10:17:52;;;;;;;1.85;1.20;;;1.20;95.50;;;;;;4904999;29;20032;-36
2024/01/15 10:20:17;;;;;;;2.10;1.02;;;1.20;94.70;;;;;;4885272;29;20047;-34
2024/01/15 10:22:46;;;;;;;1.08;1.08;;;1.20;94.60;;;;;;4906224;29;20194;-36
2024/01/15 10:25:13;;;;;;;2.00;1.80;;;1.20;95.20;;;;;;4905579;29;20589;-34
2024/01/15 10:27:41;;;;;;;1.33;1.23;;;1.30;95.40;;;;;;4906109;29;20032;-39
2024/01/15 10:30:07;;;;;;;1.50;1.40;;;1.30;96.00;;;;;;4906843;29;20827;-36
2024/01/15 10:32:32;;;;;;;1.42;1.33;;;1.30;93.90;;;;;;4906754;29;20397;-38
2024/01/15 10:34:58;;;;;;;2.35;1.55;;;1.30;94.60;;;;;;4905099;29;20028;-36
2024/01/15 10:37:25;;;;;;;2.00;1.52;;;1.30;95.10;;;;;;4900375;29;20486;-35
2024/01/15 10:39:51;;;;;;;2.85;2.13;;;1.30;95.00;;;;;;4888650;29;20451;-34
2024/01/15 10:42:18;;;;;;;2.85;1.90;;;1.30;94.90;;;;;;4896880;29;20403;-33
2024/01/15 10:44:44;;;;;;;1.42;1.33;;;1.30;94.50;;;;;;4904386;29;20024;-35
2024/01/15 10:47:11;;;;;;;3.15;1.85;;;1.40;95.90;;;;;;4905434;29;20044;-36
2024/01/15 10:49:37;;;;;;;3.80;1.60;;;1.40;96.30;;;;;;4907971;29;20058;-34
2024/01/15 10:52:03;;;;;;;1.58;1.48;;;1.40;95.70;;;;;;4901736;29;20071;-39
2024/01/15 10:54:29;;;;;;;2.05;1.60;;;1.40;95.60;;;;;;4906908;29;20040;-42
2024/01/15 10:56:56;;;;;;;1.40;1.30;;;1.40;96.60;;;;;;4900161;29;20075;-38
2024/01/15 10:59:22;;;;;;;1.60;1.50;;;1.40;95.30;;;;;;4904717;29;20483;-42
2024/01/15 11:01:53;;;;;;;4.30;2.00;;;1.50;96.10;;;;;;4905827;29;20118;-41
2024/01/15 11:04:23;;;;;;;1.95;1.85;;;1.50;96.30;;;;;;4903631;29;20036;-43
2024/01/15 11:06:55;;;;;;;1.92;1.80;;;1.60;97.00;;;;;;4903911;29;20486;-37
2024/01/15 11:09:21;;;;;;;1.83;1.67;;;1.50;96.60;;;;;;4898726;29;20044;-41
2024/01/15 11:11:49;;;;;;;2.10;1.90;;;1.50;95.80;;;;;;4906407;29;20036;-42
2024/01/15 11:14:43;;;;;;;1.60;1.50;;;1.50;95.80;;;;;;4904715;29;20108;-43
2024/01/15 11:17:10;;;;;;;2.35;1.58;;;1.60;94.70;;;;;;4902470;29;20303;-42
2024/01/15 11:19:43;;;;;;;1.75;1.55;;;1.60;94.00;;;;;;4902754;29;20440;-41
2024/01/15 11:22:11;;;;;;;2.10;1.63;;;1.60;95.20;;;;;;4893858;29;20039;-42
2024/01/15 11:24:40;;;;;;;2.08;1.88;;;1.60;94.30;;;;;;4904614;29;20020;-37
2024/01/15 11:27:07;;;;;;;1.42;1.33;;;1.50;94.80;;;;;;4899338;29;20042;-43
2024/01/15 11:29:37;;;;;;;2.15;1.75;;;1.50;96.10;;;;;;4902786;29;20403;-42
2024/01/15 11:32:07;;;;;;;2.17;1.83;;;1.50;95.70;;;;;;4903364;29;20066;-42
2024/01/15 11:34:58;;;;;;;2.33;1.77;;;1.50;95.60;;;;;;4903729;29;20079;-43
2024/01/15 11:37:26;;;;;;;2.25;1.50;;;1.50;95.30;;;;;;4887159;29;20032;-42
2024/01/15 11:39:56;;;;;;;2.30;2.10;;;1.60;94.10;;;;;;4903394;29;20566;-37
2024/01/15 11:42:22;;;;;;;2.03;1.65;;;1.60;95.60;;;;;;4904445;29;20115;-40
2024/01/15 11:44:49;;;;;;;1.17;1.17;;;1.60;95.10;;;;;;4901113;29;20051;-40
2024/01/15 11:47:15;;;;;;;1.63;1.48;;;1.70;94.30;;;;;;4904144;29;20028;-42
2024/01/15 11:50:05;;;;;;;1.42;1.40;;;1.70;96.00;;;;;;4907103;29;20471;-37
2024/01/15 11:52:36;;;;;;;3.55;1.85;;;1.70;97.00;;;;;;4902884;29;20040;-40
2024/01/15 11:55:10;;;;;;;2.13;1.98;;;1.60;96.10;;;;;;4902370;29;20087;-42
2024/01/15 11:57:45;;;;;;;2.38;2.17;;;1.50;95.40;;;;;;4908545;29;20104;-34
2024/01/15 12:00:12;;;;;;;1.23;1.15;;;1.50;95.20;;;;;;4906910;29;20078;-38
2024/01/15 12:02:46;;;;;;;1.97;1.87;;;1.50;96.10;;;;;;4906758;29;20446;-43
2024/01/15 12:05:13;;;;;;;4.97;1.90;;;1.50;94.60;;;;;;4907835;29;20024;-42
2024/01/15 12:07:43;;;;;;;2.53;2.10;;;1.40;96.10;;;;;;4903912;29;20099;-35
2024/01/15 12:10:14;;;;;;;4.43;2.17;;;1.40;95.30;;;;;;4905887;29;20435;-42
2024/01/15 12:12:39;;;;;;;1.80;1.52;;;1.40;95.80;;;;;;4891276;29;20043;-36
2024/01/15 12:15:05;;;;;;;1.63;1.52;;;1.40;96.20;;;;;;4909244;29;20486;-42
2024/01/15 12:17:31;;;;;;;2.72;1.90;;;1.40;96.10;;;;;;4905380;29;20044;-37
2024/01/15 12:19:57;;;;;;;2.25;1.40;;;1.40;96.40;;;;;;4909817;29;20529;-42
2024/01/15 12:22:22;;;;;;;1.92;1.63;;;1.40;97.20;;;;;;4911139;29;20030;-43
2024/01/15 12:24:48;;;;;;;2.17;1.98;;;1.40;97.90;;;;;;4903957;29;20028;-42
2024/01/15 12:27:14;;;;;;;3.38;2.42;;;1.50;97.40;;;;;;4903936;29;20159;-41
2024/01/15 12:29:40;;;;;;;2.55;1.80;;;1.50;98.60;;;;;;4905962;29;20036;-38
2024/01/15 12:32:06;;;;;;;2.30;2.13;;;1.50;97.80;;;;;;4904339;29;21001;-41
2024/01/15 12:34:32;;;;;;;2.17;1.80;;;1.60;97.00;;;;;;4906738;29;20060;-35
2024/01/15 12:36:58;;;;;;;10.93;2.25;;;1.60;96.80;;;;;;4905046;29;20124;-40
2024/01/15 12:39:24;;;;;;;2.55;2.00;;;1.60;96.90;;;;;;4903271;29;20038;-43
2024/01/15 12:41:51;;;;;;;1.70;1.60;;;1.70;97.00;;;;;;4908067;29;20513;-41
2024/01/15 12:44:16;;;;;;;5.05;2.58;;;1.70;96.90;;;;;;4906543;29;20036;-41
2024/01/15 12:46:42;;;;;;;3.03;2.67;;;1.70;97.10;;;;;;4899476;29;20063;-37